Time;durP1;ratioP1;P1;durP2;ratioP2;P2;SDS_P1;SDS_P2;PMS_P1;PMS_P2;Temp;Humidity;BMP_temperature;BMP_pressure;BME280_temperature;BME280_humidity;BME280_pressure;Samples;Min_cycle;Max_cycle;Signal;HPM_P1;HPM_P2
2023/05/07 00:01:01;;;;;;;33.25;25.00;;;;;;;;;;5086066;28;20044;-67
2023/05/07 00:03:27;;;;;;;31.20;25.85;;;;;;;;;;5085425;28;20421;-67
2023/05/07 00:05:53;;;;;;;37.42;25.17;;;;;;;;;;5085468;28;20048;-67
2023/05/07 00:08:20;;;;;;;30.95;22.75;;;;;;;;;;5084526;28;20038;-67
2023/05/07 00:10:46;;;;;;;34.25;23.23;;;;;;;;;;5087984;27;20133;-66
2023/05/07 00:13:13;;;;;;;31.73;23.60;;;;;;;;;;5071113;28;20527;-67
2023/05/07 00:15:39;;;;;;;31.63;23.65;;;;;;;;;;5084689;28;20131;-67
2023/05/07 00:18:05;;;;;;;32.17;23.20;;;;;;;;;;5066185;28;20660;-66
2023/05/07 00:20:31;;;;;;;30.48;22.95;;;;;;;;;;5064748;28;20161;-67
2023/05/07 00:22:57;;;;;;;29.25;23.05;;;;;;;;;;5053785;28;20176;-67
2023/05/07 00:25:23;;;;;;;30.73;23.80;;;;;;;;;;5071935;28;20356;-66
2023/05/07 00:27:49;;;;;;;34.30;25.35;;;;;;;;;;5068823;28;20092;-66
2023/05/07 00:30:16;;;;;;;36.65;24.35;;;;;;;;;;5069736;28;20470;-66
2023/05/07 00:32:42;;;;;;;31.48;22.67;;;;;;;;;;5086472;27;20524;-67
2023/05/07 00:35:09;;;;;;;32.92;24.35;;;;;;;;;;5089357;28;20043;-67
2023/05/07 00:37:35;;;;;;;32.67;25.40;;;;;;;;;;5087276;27;20412;-67
2023/05/07 00:40:04;;;;;;;31.00;22.70;;;;;;;;;;5088533;28;20047;-66
2023/05/07 00:42:32;;;;;;;32.00;24.13;;;;;;;;;;5085766;27;20058;-67
2023/05/07 00:44:58;;;;;;;29.67;22.67;;;;;;;;;;5069964;28;20043;-67
2023/05/07 00:47:25;;;;;;;31.63;24.08;;;;;;;;;;5070778;28;20044;-66
2023/05/07 00:49:52;;;;;;;31.38;23.40;;;;;;;;;;5069791;27;20494;-66
2023/05/07 00:52:20;;;;;;;31.67;22.90;;;;;;;;;;5088934;27;20269;-67
2023/05/07 00:54:46;;;;;;;30.02;22.75;;;;;;;;;;5070308;28;20051;-67
2023/05/07 00:57:12;;;;;;;30.13;23.33;;;;;;;;;;5090852;27;21328;-67
2023/05/07 00:59:40;;;;;;;29.92;24.10;;;;;;;;;;5071850;28;20068;-67
2023/05/07 01:02:06;;;;;;;33.08;24.38;;;;;;;;;;5054214;28;20408;-66
2023/05/07 01:04:32;;;;;;;40.47;24.55;;;;;;;;;;5090497;27;20044;-66
2023/05/07 01:07:00;;;;;;;32.67;24.75;;;;;;;;;;5072400;28;20067;-66
2023/05/07 01:09:26;;;;;;;34.50;24.63;;;;;;;;;;5092595;27;20043;-66
2023/05/07 01:11:54;;;;;;;28.75;22.77;;;;;;;;;;5069708;27;20063;-66
2023/05/07 01:14:21;;;;;;;31.17;25.08;;;;;;;;;;5070061;28;20050;-66
2023/05/07 01:16:47;;;;;;;36.97;24.88;;;;;;;;;;5090505;27;20461;-66
2023/05/07 01:19:15;;;;;;;34.42;24.70;;;;;;;;;;5090865;27;20398;-66
2023/05/07 01:21:45;;;;;;;32.50;24.45;;;;;;;;;;5074981;28;20153;-66
2023/05/07 01:24:12;;;;;;;32.15;25.55;;;;;;;;;;5068780;28;20609;-67
2023/05/07 01:26:38;;;;;;;34.70;26.40;;;;;;;;;;5091586;27;20059;-66
2023/05/07 01:29:04;;;;;;;33.72;25.80;;;;;;;;;;5069711;28;20429;-66
2023/05/07 01:31:31;;;;;;;33.53;25.50;;;;;;;;;;5091648;27;20055;-66
2023/05/07 01:33:57;;;;;;;32.05;24.80;;;;;;;;;;5071477;28;20742;-67
2023/05/07 01:36:26;;;;;;;37.17;27.80;;;;;;;;;;5090403;27;20487;-66
2023/05/07 01:38:52;;;;;;;35.05;26.15;;;;;;;;;;5070932;28;20058;-67
2023/05/07 01:41:19;;;;;;;33.15;26.23;;;;;;;;;;5068084;28;20042;-67
2023/05/07 01:43:46;;;;;;;35.72;26.90;;;;;;;;;;5069898;28;20188;-66
2023/05/07 01:46:13;;;;;;;45.20;28.23;;;;;;;;;;5082206;28;20464;-66
2023/05/07 01:48:39;;;;;;;31.23;26.52;;;;;;;;;;5082523;28;20905;-66
2023/05/07 01:51:06;;;;;;;44.33;28.48;;;;;;;;;;5064877;28;20795;-66
2023/05/07 01:53:40;;;;;;;39.85;28.75;;;;;;;;;;5080622;28;20414;-66
2023/05/07 01:56:06;;;;;;;32.85;27.90;;;;;;;;;;5084677;28;20044;-66
2023/05/07 01:58:32;;;;;;;32.10;26.45;;;;;;;;;;5067794;28;20184;-67
2023/05/07 02:00:58;;;;;;;36.25;26.45;;;;;;;;;;5084059;27;20487;-66
2023/05/07 02:03:25;;;;;;;31.27;25.77;;;;;;;;;;5065815;28;20051;-66
2023/05/07 02:05:51;;;;;;;35.80;27.30;;;;;;;;;;5082778;28;20641;-66
2023/05/07 02:08:17;;;;;;;36.47;27.35;;;;;;;;;;5062514;28;20044;-67
2023/05/07 02:10:43;;;;;;;33.53;26.27;;;;;;;;;;5084563;28;20400;-66
2023/05/07 02:13:10;;;;;;;36.67;27.25;;;;;;;;;;5063471;28;20089;-66
2023/05/07 02:15:36;;;;;;;37.80;27.33;;;;;;;;;;5064720;28;20128;-66
2023/05/07 02:18:03;;;;;;;37.40;28.17;;;;;;;;;;5081610;27;20047;-66
2023/05/07 02:20:29;;;;;;;37.85;26.17;;;;;;;;;;5062354;28;20047;-66
2023/05/07 02:22:55;;;;;;;36.00;28.25;;;;;;;;;;5087606;28;20050;-66
2023/05/07 02:25:22;;;;;;;43.25;29.15;;;;;;;;;;5061499;27;20109;-67
2023/05/07 02:27:48;;;;;;;37.20;27.27;;;;;;;;;;5082343;28;20500;-66
2023/05/07 02:30:14;;;;;;;40.03;29.20;;;;;;;;;;5063819;28;20056;-66
2023/05/07 02:32:40;;;;;;;32.20;26.67;;;;;;;;;;5070726;28;20115;-66
2023/05/07 02:35:07;;;;;;;34.17;26.05;;;;;;;;;;5067114;28;20134;-66
2023/05/07 02:37:33;;;;;;;37.20;28.17;;;;;;;;;;5069291;28;20036;-66
2023/05/07 02:39:59;;;;;;;38.38;27.38;;;;;;;;;;5067727;28;20171;-66
2023/05/07 02:42:25;;;;;;;33.38;27.40;;;;;;;;;;5065448;28;20081;-66
2023/05/07 02:44:51;;;;;;;38.45;28.58;;;;;;;;;;5089371;28;20040;-66
2023/05/07 02:47:17;;;;;;;37.33;26.90;;;;;;;;;;5069015;28;20044;-66
2023/05/07 02:49:43;;;;;;;36.80;26.88;;;;;;;;;;5068201;28;20056;-66
2023/05/07 02:52:10;;;;;;;39.95;28.15;;;;;;;;;;5062709;28;20486;-66
2023/05/07 02:54:36;;;;;;;34.47;26.88;;;;;;;;;;5067669;28;20051;-66
2023/05/07 02:57:03;;;;;;;36.55;26.17;;;;;;;;;;5062903;28;20091;-66
2023/05/07 02:59:29;;;;;;;38.83;28.10;;;;;;;;;;5083927;28;20040;-66
2023/05/07 03:01:55;;;;;;;34.25;26.58;;;;;;;;;;5064523;28;20039;-66
2023/05/07 03:04:21;;;;;;;34.03;26.67;;;;;;;;;;5084293;28;20491;-66
2023/05/07 03:06:47;;;;;;;37.28;27.38;;;;;;;;;;5075455;28;20044;-66
2023/05/07 03:09:13;;;;;;;35.08;26.92;;;;;;;;;;5090280;28;20036;-66
2023/05/07 03:11:39;;;;;;;37.38;27.45;;;;;;;;;;5071161;28;20051;-66
2023/05/07 03:14:05;;;;;;;35.72;29.20;;;;;;;;;;5088040;28;20059;-66
2023/05/07 03:16:32;;;;;;;38.38;28.38;;;;;;;;;;5086804;28;20089;-66
2023/05/07 03:18:58;;;;;;;39.83;28.77;;;;;;;;;;5068067;28;20079;-66
2023/05/07 03:21:24;;;;;;;38.53;29.20;;;;;;;;;;5064301;28;20096;-66
2023/05/07 03:23:50;;;;;;;39.25;28.70;;;;;;;;;;5086648;28;20036;-66
2023/05/07 03:26:16;;;;;;;37.53;27.70;;;;;;;;;;5046274;28;20895;-66
2023/05/07 03:28:42;;;;;;;41.33;29.90;;;;;;;;;;5065846;28;20367;-66
2023/05/07 03:31:08;;;;;;;37.65;29.58;;;;;;;;;;5080978;28;20052;-66
2023/05/07 03:33:34;;;;;;;37.72;29.73;;;;;;;;;;5084277;28;20477;-66
2023/05/07 03:36:01;;;;;;;41.13;30.73;;;;;;;;;;5064734;28;20043;-66
2023/05/07 03:38:27;;;;;;;47.53;30.83;;;;;;;;;;5085680;28;20054;-66
2023/05/07 03:40:53;;;;;;;40.60;31.05;;;;;;;;;;5088850;28;20039;-66
2023/05/07 03:43:19;;;;;;;41.63;31.80;;;;;;;;;;5086139;28;20557;-66
2023/05/07 03:45:45;;;;;;;40.72;30.80;;;;;;;;;;5064158;28;20151;-66
2023/05/07 03:48:11;;;;;;;42.17;31.08;;;;;;;;;;5083076;28;20073;-66
2023/05/07 03:50:38;;;;;;;42.97;31.38;;;;;;;;;;5068733;28;20729;-66
2023/05/07 03:53:04;;;;;;;45.88;32.92;;;;;;;;;;5064525;28;20101;-66
2023/05/07 03:55:30;;;;;;;42.85;32.05;;;;;;;;;;5066958;28;20059;-66
2023/05/07 03:57:57;;;;;;;43.63;31.83;;;;;;;;;;5090215;28;20506;-66
2023/05/07 04:00:23;;;;;;;46.15;33.25;;;;;;;;;;5090011;28;20153;-66
2023/05/07 04:02:49;;;;;;;52.38;34.08;;;;;;;;;;5090649;28;20046;-66
2023/05/07 04:05:15;;;;;;;45.95;33.33;;;;;;;;;;5073201;28;20047;-66
2023/05/07 04:07:41;;;;;;;46.33;33.03;;;;;;;;;;5093451;28;20032;-66
2023/05/07 04:10:08;;;;;;;47.10;31.45;;;;;;;;;;5097150;28;20137;-66
2023/05/07 04:12:34;;;;;;;47.88;34.80;;;;;;;;;;5094343;28;20712;-66
2023/05/07 04:15:00;;;;;;;47.38;34.15;;;;;;;;;;5072631;28;20108;-66
2023/05/07 04:17:26;;;;;;;50.83;36.15;;;;;;;;;;5093061;28;20078;-67
2023/05/07 04:19:52;;;;;;;52.92;36.83;;;;;;;;;;5087506;28;20032;-69
2023/05/07 04:22:18;;;;;;;52.33;34.92;;;;;;;;;;5088024;28;20110;-66
2023/05/07 04:24:44;;;;;;;52.22;35.70;;;;;;;;;;5088335;27;20516;-66
2023/05/07 04:27:11;;;;;;;49.25;36.13;;;;;;;;;;5073253;28;20123;-66
2023/05/07 04:29:38;;;;;;;51.95;36.05;;;;;;;;;;5093916;27;20566;-67
2023/05/07 04:32:04;;;;;;;50.55;35.38;;;;;;;;;;5102037;28;20399;-66
2023/05/07 04:34:30;;;;;;;49.25;35.70;;;;;;;;;;5077803;28;20076;-66
2023/05/07 04:36:59;;;;;;;55.88;38.22;;;;;;;;;;5094328;27;20051;-66
2023/05/07 04:39:25;;;;;;;53.80;36.17;;;;;;;;;;5084587;28;20040;-66
2023/05/07 04:41:51;;;;;;;53.13;36.75;;;;;;;;;;5071421;28;20792;-66
2023/05/07 04:44:18;;;;;;;51.97;35.05;;;;;;;;;;5070426;28;20071;-66
2023/05/07 04:46:44;;;;;;;52.92;36.55;;;;;;;;;;5073371;28;21383;-66
2023/05/07 04:49:11;;;;;;;50.63;36.30;;;;;;;;;;5089956;28;20043;-66
2023/05/07 04:51:38;;;;;;;53.65;37.22;;;;;;;;;;5074969;27;20483;-66
2023/05/07 04:54:04;;;;;;;62.20;39.63;;;;;;;;;;5090939;28;20044;-67
2023/05/07 04:56:30;;;;;;;62.90;37.95;;;;;;;;;;5094356;27;20407;-66
2023/05/07 04:58:56;;;;;;;58.33;37.00;;;;;;;;;;5056514;28;20403;-66
2023/05/07 05:01:22;;;;;;;59.92;37.55;;;;;;;;;;5078885;28;20123;-66
2023/05/07 05:03:48;;;;;;;54.10;36.80;;;;;;;;;;5096432;27;20634;-66
2023/05/07 05:06:14;;;;;;;57.95;37.53;;;;;;;;;;5074909;28;20126;-66
2023/05/07 05:08:40;;;;;;;58.30;35.78;;;;;;;;;;5078177;28;20116;-66
2023/05/07 05:11:07;;;;;;;52.97;37.47;;;;;;;;;;5094953;28;20079;-65
2023/05/07 05:13:33;;;;;;;56.50;37.35;;;;;;;;;;5074382;27;20135;-66
2023/05/07 05:15:59;;;;;;;58.53;39.40;;;;;;;;;;5090394;28;20032;-66
2023/05/07 05:18:25;;;;;;;56.20;38.65;;;;;;;;;;5096902;28;20055;-66
2023/05/07 05:20:52;;;;;;;57.85;38.10;;;;;;;;;;5092769;27;20043;-66
2023/05/07 05:23:18;;;;;;;55.20;36.88;;;;;;;;;;5074150;28;20158;-66
2023/05/07 05:25:44;;;;;;;55.22;36.10;;;;;;;;;;5072400;28;20040;-65
2023/05/07 05:28:10;;;;;;;50.92;35.45;;;;;;;;;;5071646;28;20545;-65
2023/05/07 05:30:36;;;;;;;54.13;35.65;;;;;;;;;;5069233;27;20055;-65
2023/05/07 05:33:03;;;;;;;48.85;34.10;;;;;;;;;;5090016;27;20181;-65
2023/05/07 05:35:30;;;;;;;56.90;37.75;;;;;;;;;;5071172;28;20134;-65
2023/05/07 05:37:56;;;;;;;55.47;37.17;;;;;;;;;;5089696;28;20094;-65
2023/05/07 05:40:22;;;;;;;48.35;34.28;;;;;;;;;;5094419;28;20040;-65
2023/05/07 05:42:48;;;;;;;54.80;36.28;;;;;;;;;;5095583;28;20050;-65
2023/05/07 05:45:15;;;;;;;49.55;34.83;;;;;;;;;;5077297;28;20167;-65
2023/05/07 05:47:41;;;;;;;57.22;34.35;;;;;;;;;;5076616;28;20036;-65
2023/05/07 05:50:07;;;;;;;52.90;35.80;;;;;;;;;;5093096;27;20483;-65
2023/05/07 05:52:34;;;;;;;49.03;34.17;;;;;;;;;;5090513;27;20097;-65
2023/05/07 05:55:00;;;;;;;49.75;34.95;;;;;;;;;;5096960;28;20050;-65
2023/05/07 05:57:26;;;;;;;56.22;36.67;;;;;;;;;;5079202;28;20051;-65
2023/05/07 05:59:52;;;;;;;49.33;34.35;;;;;;;;;;5080752;28;20047;-65
2023/05/07 06:02:18;;;;;;;51.45;33.90;;;;;;;;;;5095783;27;20039;-65
2023/05/07 06:04:45;;;;;;;44.65;33.10;;;;;;;;;;5075130;28;20078;-65
2023/05/07 06:07:11;;;;;;;46.10;32.92;;;;;;;;;;5072705;28;20127;-65
2023/05/07 06:09:37;;;;;;;48.70;32.88;;;;;;;;;;5089133;27;20593;-65
2023/05/07 06:12:03;;;;;;;45.13;33.22;;;;;;;;;;5095735;27;20150;-66
2023/05/07 06:14:30;;;;;;;44.92;32.90;;;;;;;;;;5101982;28;20530;-66
2023/05/07 06:16:56;;;;;;;45.40;30.95;;;;;;;;;;5078870;28;20517;-66
2023/05/07 06:19:23;;;;;;;44.40;32.90;;;;;;;;;;5074116;28;20055;-66
2023/05/07 06:21:50;;;;;;;42.28;30.60;;;;;;;;;;5093830;27;20083;-65
2023/05/07 06:24:16;;;;;;;42.58;31.52;;;;;;;;;;5077488;28;20048;-65
2023/05/07 06:26:42;;;;;;;44.08;32.42;;;;;;;;;;5075945;28;20040;-66
2023/05/07 06:29:08;;;;;;;43.15;32.22;;;;;;;;;;5075112;28;20044;-66
2023/05/07 06:31:34;;;;;;;43.70;31.52;;;;;;;;;;5094630;27;20050;-65
2023/05/07 06:34:02;;;;;;;39.70;30.13;;;;;;;;;;5057994;28;20044;-65
2023/05/07 06:36:28;;;;;;;42.45;30.35;;;;;;;;;;5076788;28;20113;-66
2023/05/07 06:38:54;;;;;;;40.65;29.70;;;;;;;;;;5076181;28;20048;-65
2023/05/07 06:41:21;;;;;;;42.25;30.25;;;;;;;;;;5090351;28;20036;-66
2023/05/07 06:43:47;;;;;;;39.33;29.83;;;;;;;;;;5088401;28;20035;-66
2023/05/07 06:46:13;;;;;;;37.55;29.20;;;;;;;;;;5077080;28;20384;-66
2023/05/07 06:48:39;;;;;;;39.35;29.25;;;;;;;;;;5075083;28;21652;-78
2023/05/07 06:51:05;;;;;;;37.72;29.38;;;;;;;;;;5093708;28;20034;-65
2023/05/07 06:53:32;;;;;;;36.10;28.90;;;;;;;;;;5102153;28;20058;-65
2023/05/07 06:55:58;;;;;;;41.17;28.60;;;;;;;;;;5092316;28;21001;-65
2023/05/07 06:58:24;;;;;;;41.13;31.00;;;;;;;;;;5093855;28;20042;-66
2023/05/07 07:00:50;;;;;;;39.92;29.02;;;;;;;;;;5092607;28;20040;-65
2023/05/07 07:03:16;;;;;;;36.80;28.92;;;;;;;;;;5093365;28;20048;-65
2023/05/07 07:05:42;;;;;;;37.95;28.17;;;;;;;;;;5093046;28;20118;-65
2023/05/07 07:08:08;;;;;;;37.45;28.80;;;;;;;;;;5093523;28;20115;-66
2023/05/07 07:10:35;;;;;;;40.03;29.95;;;;;;;;;;5090562;28;20039;-66
2023/05/07 07:13:01;;;;;;;37.15;27.65;;;;;;;;;;5071403;28;20445;-66
2023/05/07 07:15:27;;;;;;;35.33;26.75;;;;;;;;;;5091628;28;20391;-66
2023/05/07 07:17:53;;;;;;;36.72;27.67;;;;;;;;;;5076790;28;20121;-67
2023/05/07 07:20:19;;;;;;;33.83;26.02;;;;;;;;;;5072698;28;20056;-65
2023/05/07 07:22:45;;;;;;;37.60;27.20;;;;;;;;;;5073202;28;20483;-66
2023/05/07 07:25:11;;;;;;;35.28;27.52;;;;;;;;;;5070735;28;20075;-66
2023/05/07 07:27:39;;;;;;;33.88;26.13;;;;;;;;;;5074268;28;20098;-66
2023/05/07 07:30:06;;;;;;;35.55;26.13;;;;;;;;;;5071916;28;20119;-66
2023/05/07 07:32:33;;;;;;;37.05;27.40;;;;;;;;;;5089068;28;20730;-65
2023/05/07 07:34:59;;;;;;;33.00;25.55;;;;;;;;;;5093926;28;20076;-65
2023/05/07 07:37:25;;;;;;;33.88;26.95;;;;;;;;;;5074321;28;20146;-66
2023/05/07 07:39:51;;;;;;;37.50;28.88;;;;;;;;;;5075613;28;20505;-66
2023/05/07 07:42:18;;;;;;;35.13;27.08;;;;;;;;;;5076973;28;20395;-66
2023/05/07 07:44:44;;;;;;;35.30;26.95;;;;;;;;;;5095028;27;20439;-68
2023/05/07 07:47:10;;;;;;;32.60;26.65;;;;;;;;;;5077288;27;20047;-68
2023/05/07 07:49:37;;;;;;;33.22;26.10;;;;;;;;;;5105056;27;20100;-68
2023/05/07 07:52:03;;;;;;;36.40;27.17;;;;;;;;;;5084616;28;20047;-68
2023/05/07 07:54:30;;;;;;;33.72;26.10;;;;;;;;;;5088785;28;20080;-68
2023/05/07 07:56:56;;;;;;;36.05;23.98;;;;;;;;;;5107818;27;20321;-68
2023/05/07 07:59:22;;;;;;;34.25;25.77;;;;;;;;;;5097698;27;20123;-68
2023/05/07 08:01:50;;;;;;;33.35;25.95;;;;;;;;;;5078639;28;20044;-68
2023/05/07 08:04:16;;;;;;;31.08;24.88;;;;;;;;;;5076152;27;20055;-66
2023/05/07 08:06:42;;;;;;;30.17;24.50;;;;;;;;;;5078422;28;20044;-66
2023/05/07 08:09:09;;;;;;;29.75;25.23;;;;;;;;;;5078545;28;20150;-66
2023/05/07 08:11:35;;;;;;;33.20;25.23;;;;;;;;;;5080398;28;20445;-66
2023/05/07 08:14:01;;;;;;;30.10;23.85;;;;;;;;;;5078686;28;20043;-66
2023/05/07 08:16:28;;;;;;;32.13;25.02;;;;;;;;;;5100328;27;20043;-66
2023/05/07 08:18:54;;;;;;;34.45;26.77;;;;;;;;;;5098780;27;20099;-66
2023/05/07 08:21:20;;;;;;;32.75;26.42;;;;;;;;;;5079246;28;20040;-66
2023/05/07 08:23:46;;;;;;;31.02;24.45;;;;;;;;;;5074232;28;20066;-73
2023/05/07 08:26:12;;;;;;;31.40;25.33;;;;;;;;;;5075170;27;20044;-66
2023/05/07 08:28:39;;;;;;;34.05;24.30;;;;;;;;;;5074568;28;20134;-66
2023/05/07 08:31:05;;;;;;;31.65;25.42;;;;;;;;;;5071980;28;20452;-66
2023/05/07 08:33:32;;;;;;;30.88;24.48;;;;;;;;;;5075128;28;20052;-66
2023/05/07 08:35:58;;;;;;;40.88;25.63;;;;;;;;;;5057868;28;20083;-66
2023/05/07 08:38:24;;;;;;;31.95;26.05;;;;;;;;;;5071967;28;20059;-66
2023/05/07 08:40:50;;;;;;;29.50;23.83;;;;;;;;;;5073654;28;20499;-66
2023/05/07 08:43:17;;;;;;;31.60;24.83;;;;;;;;;;5090618;28;20442;-66
2023/05/07 08:45:45;;;;;;;29.48;24.35;;;;;;;;;;5093464;28;20041;-66
2023/05/07 08:48:15;;;;;;;31.08;24.17;;;;;;;;;;5075798;28;20097;-66
2023/05/07 08:50:42;;;;;;;29.42;24.65;;;;;;;;;;5075827;28;20044;-67
2023/05/07 08:53:08;;;;;;;29.58;24.27;;;;;;;;;;5072265;28;20495;-66
2023/05/07 08:55:34;;;;;;;31.73;24.73;;;;;;;;;;5072723;28;20044;-66
2023/05/07 08:58:01;;;;;;;30.95;24.90;;;;;;;;;;5086988;28;20113;-66
2023/05/07 09:00:27;;;;;;;31.13;24.77;;;;;;;;;;5075720;28;20044;-66
2023/05/07 09:02:53;;;;;;;31.05;25.58;;;;;;;;;;5089611;27;20479;-66
2023/05/07 09:05:20;;;;;;;30.92;24.45;;;;;;;;;;5075170;28;20097;-66
2023/05/07 09:07:47;;;;;;;30.95;25.00;;;;;;;;;;5072305;28;20040;-66
2023/05/07 09:10:13;;;;;;;31.95;24.70;;;;;;;;;;5097304;27;20048;-66
2023/05/07 09:12:40;;;;;;;31.65;23.80;;;;;;;;;;5076870;27;20440;-65
2023/05/07 09:15:07;;;;;;;30.70;24.80;;;;;;;;;;5074785;28;20056;-66
2023/05/07 09:17:33;;;;;;;29.10;23.50;;;;;;;;;;5075197;28;20511;-64
2023/05/07 09:20:04;;;;;;;30.40;24.63;;;;;;;;;;5084715;28;20075;-65
2023/05/07 09:22:33;;;;;;;30.60;23.85;;;;;;;;;;5098078;27;20484;-66
2023/05/07 09:24:59;;;;;;;28.50;23.58;;;;;;;;;;5099576;28;20036;-65
2023/05/07 09:27:26;;;;;;;32.17;25.60;;;;;;;;;;5091773;27;20054;-65
2023/05/07 09:29:52;;;;;;;30.30;23.80;;;;;;;;;;5098378;27;20427;-66
2023/05/07 09:32:18;;;;;;;34.22;25.30;;;;;;;;;;5097847;27;20089;-65
2023/05/07 09:34:44;;;;;;;29.92;24.23;;;;;;;;;;5077607;28;20059;-65
2023/05/07 09:37:12;;;;;;;31.73;25.00;;;;;;;;;;5097618;27;20040;-65
2023/05/07 09:39:42;;;;;;;32.40;25.23;;;;;;;;;;5078007;28;20040;-65
2023/05/07 09:42:09;;;;;;;31.15;25.60;;;;;;;;;;5093963;27;20685;-66
2023/05/07 09:44:36;;;;;;;30.83;24.45;;;;;;;;;;5092268;28;20071;-65
2023/05/07 09:47:03;;;;;;;30.27;23.70;;;;;;;;;;5075517;28;20067;-65
2023/05/07 09:49:30;;;;;;;30.92;25.42;;;;;;;;;;5076418;28;20047;-66
2023/05/07 09:51:56;;;;;;;29.60;24.90;;;;;;;;;;5095019;28;20116;-65
2023/05/07 09:54:23;;;;;;;31.48;23.75;;;;;;;;;;5080620;28;20066;-65
2023/05/07 09:56:49;;;;;;;30.92;25.48;;;;;;;;;;5075522;28;20051;-65
2023/05/07 09:59:17;;;;;;;29.52;24.15;;;;;;;;;;5084157;28;20044;-65
2023/05/07 10:01:44;;;;;;;29.00;23.60;;;;;;;;;;5089312;27;20118;-66
2023/05/07 10:04:12;;;;;;;31.45;24.88;;;;;;;;;;5073186;28;20090;-65
2023/05/07 10:06:38;;;;;;;31.35;24.10;;;;;;;;;;5074004;28;20116;-65
2023/05/07 10:09:05;;;;;;;32.13;24.45;;;;;;;;;;5088464;28;20890;-66
2023/05/07 10:11:33;;;;;;;32.92;26.05;;;;;;;;;;5091898;28;20080;-67
2023/05/07 10:14:01;;;;;;;28.77;22.85;;;;;;;;;;5093260;28;20078;-67
2023/05/07 10:16:29;;;;;;;29.33;23.88;;;;;;;;;;5090983;27;20118;-66
2023/05/07 10:18:56;;;;;;;28.02;23.83;;;;;;;;;;5072659;28;20044;-65
2023/05/07 10:21:24;;;;;;;31.63;24.42;;;;;;;;;;5094645;28;20043;-66
2023/05/07 10:23:54;;;;;;;28.83;22.75;;;;;;;;;;5089523;28;20056;-68
2023/05/07 10:26:22;;;;;;;28.67;23.30;;;;;;;;;;5072167;28;20055;-66
2023/05/07 10:28:51;;;;;;;26.38;22.70;;;;;;;;;;5074553;28;20055;-66
2023/05/07 10:31:32;;;;;;;26.02;22.20;;;;;;;;;;5092786;27;20059;-66
2023/05/07 10:33:59;;;;;;;26.63;22.90;;;;;;;;;;5088838;27;20071;-66
2023/05/07 10:36:27;;;;;;;29.67;22.52;;;;;;;;;;5071162;28;20048;-66
2023/05/07 10:38:54;;;;;;;28.08;23.52;;;;;;;;;;5071315;27;20048;-66
2023/05/07 10:41:20;;;;;;;30.02;24.42;;;;;;;;;;5070586;28;20036;-67
2023/05/07 10:43:47;;;;;;;27.00;22.95;;;;;;;;;;5073702;28;20054;-67
2023/05/07 10:46:15;;;;;;;25.70;22.88;;;;;;;;;;5071558;28;20051;-66
2023/05/07 10:49:00;;;;;;;28.65;22.60;;;;;;;;;;5068655;28;20046;-67
2023/05/07 10:51:27;;;;;;;29.35;23.65;;;;;;;;;;5092984;28;20051;-67
2023/05/07 10:54:10;;;;;;;23.98;21.48;;;;;;;;;;5073461;28;20086;-67
2023/05/07 10:56:37;;;;;;;23.55;20.92;;;;;;;;;;5090158;28;20052;-67
2023/05/07 10:59:35;;;;;;;24.73;21.95;;;;;;;;;;5086737;28;20106;-67
2023/05/07 11:02:03;;;;;;;23.63;21.13;;;;;;;;;;5089651;28;20085;-67
2023/05/07 11:04:31;;;;;;;23.50;21.00;;;;;;;;;;5086687;28;20043;-68
2023/05/07 11:07:08;;;;;;;24.30;21.77;;;;;;;;;;5089095;28;20047;-68
2023/05/07 11:09:53;;;;;;;25.80;20.00;;;;;;;;;;5069474;28;20121;-67
2023/05/07 11:12:37;;;;;;;23.25;19.70;;;;;;;;;;5092712;28;20040;-68
2023/05/07 11:15:03;;;;;;;24.27;21.20;;;;;;;;;;5093932;28;20471;-68
2023/05/07 11:17:31;;;;;;;20.90;18.45;;;;;;;;;;5073846;28;20114;-68
2023/05/07 11:19:58;;;;;;;22.60;20.10;;;;;;;;;;5075582;28;20503;-68
2023/05/07 11:22:31;;;;;;;24.08;18.88;;;;;;;;;;5074745;28;20040;-68
2023/05/07 11:24:57;;;;;;;;;;;;;;;;;;5064371;28;20077;-68
2023/05/07 11:27:24;;;;;;;24.48;19.65;;;;;;;;;;5078338;28;19987;-68
2023/05/07 11:29:51;;;;;;;21.38;18.90;;;;;;;;;;5093469;27;20048;-68
2023/05/07 11:32:23;;;;;;;20.15;18.08;;;;;;;;;;5072505;27;20051;-68
2023/05/07 11:34:52;;;;;;;21.00;18.73;;;;;;;;;;5092054;27;20040;-68
2023/05/07 11:37:19;;;;;;;22.40;18.42;;;;;;;;;;5090480;28;20101;-68
2023/05/07 11:39:45;;;;;;;19.63;17.52;;;;;;;;;;5071870;28;20047;-68
2023/05/07 11:42:28;;;;;;;19.92;17.17;;;;;;;;;;5073004;27;20043;-68
2023/05/07 11:44:54;;;;;;;19.02;16.77;;;;;;;;;;5092285;28;20130;-68
2023/05/07 11:47:21;;;;;;;18.83;16.83;;;;;;;;;;5079034;28;20197;-68
2023/05/07 11:49:49;;;;;;;19.02;16.90;;;;;;;;;;5073479;28;20040;-68
2023/05/07 11:52:16;;;;;;;19.95;16.00;;;;;;;;;;5075118;28;20047;-68
2023/05/07 11:54:42;;;;;;;22.52;16.45;;;;;;;;;;5074331;27;20036;-67
2023/05/07 11:57:14;;;;;;;18.38;16.35;;;;;;;;;;5095666;27;20040;-67
2023/05/07 11:59:41;;;;;;;18.55;16.23;;;;;;;;;;5100314;28;20040;-67
2023/05/07 12:02:08;;;;;;;18.63;16.67;;;;;;;;;;5097594;28;20055;-67
2023/05/07 12:04:34;;;;;;;19.08;16.75;;;;;;;;;;5096974;27;20430;-67
2023/05/07 12:07:00;;;;;;;21.52;17.17;;;;;;;;;;5093661;27;20044;-67
2023/05/07 12:09:27;;;;;;;17.05;15.23;;;;;;;;;;5075588;28;20129;-67
2023/05/07 12:11:53;;;;;;;18.65;15.70;;;;;;;;;;5085154;28;20047;-67
2023/05/07 12:14:19;;;;;;;18.13;16.08;;;;;;;;;;5091116;27;20048;-67
2023/05/07 12:16:45;;;;;;;18.38;16.35;;;;;;;;;;5092404;27;20067;-67
2023/05/07 12:19:12;;;;;;;20.33;16.48;;;;;;;;;;5091009;27;20242;-67
2023/05/07 12:21:38;;;;;;;17.88;16.00;;;;;;;;;;5091915;27;20044;-66
2023/05/07 12:24:05;;;;;;;19.00;16.17;;;;;;;;;;5088653;27;20040;-66
2023/05/07 12:26:31;;;;;;;18.40;16.33;;;;;;;;;;5072253;28;20369;-66
2023/05/07 12:28:58;;;;;;;19.08;16.13;;;;;;;;;;5093997;27;20455;-66
2023/05/07 12:31:26;;;;;;;20.67;15.82;;;;;;;;;;5089932;28;20048;-67
2023/05/07 12:33:53;;;;;;;19.13;16.02;;;;;;;;;;5092068;27;20101;-66
2023/05/07 12:36:20;;;;;;;17.58;15.10;;;;;;;;;;5090193;28;21034;-66
2023/05/07 12:38:50;;;;;;;15.85;14.15;;;;;;;;;;5089364;27;20521;-66
2023/05/07 12:41:16;;;;;;;17.85;15.93;;;;;;;;;;5092492;28;20048;-66
2023/05/07 12:43:45;;;;;;;17.52;15.23;;;;;;;;;;5089016;27;20040;-67
2023/05/07 12:46:18;;;;;;;19.75;15.82;;;;;;;;;;5090728;27;20036;-67
2023/05/07 12:48:46;;;;;;;17.65;15.85;;;;;;;;;;5089701;27;20048;-73
2023/05/07 12:51:13;;;;;;;17.15;15.45;;;;;;;;;;5078622;28;20044;-78
2023/05/07 12:53:42;;;;;;;18.00;16.10;;;;;;;;;;5075133;28;20052;-77
2023/05/07 12:56:08;;;;;;;17.77;15.88;;;;;;;;;;5077708;28;20105;-76
2023/05/07 12:58:35;;;;;;;18.88;16.67;;;;;;;;;;5083530;28;20044;-76
2023/05/07 13:01:02;;;;;;;16.88;15.18;;;;;;;;;;5080840;28;20488;-76
2023/05/07 13:03:30;;;;;;;15.70;14.07;;;;;;;;;;5093540;28;20067;-66
2023/05/07 13:05:58;;;;;;;16.73;14.25;;;;;;;;;;5094134;27;20048;-67
2023/05/07 13:08:25;;;;;;;19.02;13.65;;;;;;;;;;5099809;27;20074;-67
2023/05/07 13:10:51;;;;;;;15.82;12.95;;;;;;;;;;5098957;28;20039;-67
2023/05/07 13:13:17;;;;;;;16.48;14.45;;;;;;;;;;5096765;28;20040;-66
2023/05/07 13:15:43;;;;;;;16.38;13.95;;;;;;;;;;5072048;27;20093;-66
2023/05/07 13:18:11;;;;;;;15.57;13.88;;;;;;;;;;5071731;28;20044;-66
2023/05/07 13:20:37;;;;;;;15.52;13.70;;;;;;;;;;5088332;27;20132;-66
2023/05/07 13:23:04;;;;;;;17.50;13.07;;;;;;;;;;5087074;28;20040;-66
2023/05/07 13:25:30;;;;;;;14.20;12.80;;;;;;;;;;5090572;28;20044;-66
2023/05/07 13:27:57;;;;;;;17.60;13.55;;;;;;;;;;5073440;28;20581;-65
2023/05/07 13:30:24;;;;;;;13.38;11.98;;;;;;;;;;5089001;28;20063;-66
2023/05/07 13:32:51;;;;;;;15.13;13.38;;;;;;;;;;5095431;27;20040;-65
2023/05/07 13:35:18;;;;;;;16.90;14.93;;;;;;;;;;5075281;28;20048;-66
2023/05/07 13:37:44;;;;;;;14.63;13.23;;;;;;;;;;5071761;28;20097;-66
2023/05/07 13:40:10;;;;;;;15.00;13.48;;;;;;;;;;5092972;27;20363;-66
2023/05/07 13:42:36;;;;;;;14.05;12.35;;;;;;;;;;5092343;27;20105;-65
2023/05/07 13:45:04;;;;;;;15.07;12.77;;;;;;;;;;5091264;27;20352;-66
2023/05/07 13:47:31;;;;;;;14.70;12.68;;;;;;;;;;5051377;28;20040;-66
2023/05/07 13:49:57;;;;;;;14.48;12.98;;;;;;;;;;5088831;27;20039;-65
2023/05/07 13:52:23;;;;;;;14.00;12.30;;;;;;;;;;5090704;27;20043;-66
2023/05/07 13:54:49;;;;;;;16.20;14.50;;;;;;;;;;5091661;28;20044;-66
2023/05/07 13:57:15;;;;;;;12.93;11.63;;;;;;;;;;5092992;27;20054;-65
2023/05/07 13:59:41;;;;;;;17.25;13.07;;;;;;;;;;5093564;27;20058;-66
2023/05/07 14:02:08;;;;;;;14.30;12.82;;;;;;;;;;5089844;27;20040;-65
2023/05/07 14:04:35;;;;;;;13.75;12.35;;;;;;;;;;5090069;27;20446;-66
2023/05/07 14:07:01;;;;;;;14.45;12.95;;;;;;;;;;5072146;28;20047;-65
2023/05/07 14:09:27;;;;;;;14.10;12.55;;;;;;;;;;5088319;27;20047;-66
2023/05/07 14:11:53;;;;;;;14.70;13.20;;;;;;;;;;5090628;27;20131;-66
2023/05/07 14:14:19;;;;;;;14.27;12.88;;;;;;;;;;5088571;27;20075;-65
2023/05/07 14:16:45;;;;;;;15.65;13.77;;;;;;;;;;5071817;28;20078;-65